Time;durP1;ratioP1;P1;durP2;ratioP2;P2;SDS_P1;SDS_P2;PMS_P1;PMS_P2;Temp;Humidity;BMP_temperature;BMP_pressure;BME280_temperature;BME280_humidity;BME280_pressure;Samples;Min_cycle;Max_cycle;Signal;HPM_P1;HPM_P2
2023/04/13 00:00:39;;;;;;;0.50;0.40;;;11.00;99.90;;;;;;7393373;19;20135;-77
2023/04/13 00:03:05;;;;;;;0.77;0.40;;;11.00;99.90;;;;;;7389740;19;20130;-77
2023/04/13 00:05:33;;;;;;;0.47;0.47;;;11.00;99.90;;;;;;7394157;19;20471;-78
2023/04/13 00:08:08;;;;;;;2.27;0.60;;;11.20;99.90;;;;;;7392186;19;20166;-77
2023/04/13 00:10:35;;;;;;;2.40;0.50;;;11.00;99.90;;;;;;7390682;19;20146;-77
2023/04/13 00:13:03;;;;;;;0.83;0.50;;;11.00;99.90;;;;;;7390784;19;20176;-77
2023/04/13 00:15:30;;;;;;;1.37;0.50;;;11.00;99.90;;;;;;7391234;19;20186;-77
2023/04/13 00:17:57;;;;;;;1.87;0.60;;;11.00;99.90;;;;;;7394388;19;20135;-76
2023/04/13 00:20:23;;;;;;;0.70;0.50;;;11.00;99.90;;;;;;7390849;19;20134;-77
2023/04/13 00:22:48;;;;;;;0.50;0.40;;;10.90;99.90;;;;;;7390655;19;20570;-77
2023/04/13 00:25:15;;;;;;;0.40;0.40;;;11.00;99.90;;;;;;7392615;19;20158;-77
2023/04/13 00:27:42;;;;;;;0.43;0.43;;;11.00;99.90;;;;;;7390866;19;20146;-77
2023/04/13 00:30:14;;;;;;;0.40;0.30;;;10.80;99.90;;;;;;7393319;19;20131;-77
2023/04/13 00:32:41;;;;;;;0.50;0.40;;;10.80;99.90;;;;;;7391196;19;20154;-77
2023/04/13 00:35:09;;;;;;;0.47;0.40;;;10.80;99.90;;;;;;7392607;19;20489;-77
2023/04/13 00:37:37;;;;;;;0.60;0.37;;;10.70;99.90;;;;;;7390066;19;20147;-78
2023/04/13 00:40:05;;;;;;;0.83;0.50;;;10.80;99.90;;;;;;7391407;19;20133;-77
2023/04/13 00:42:31;;;;;;;0.63;0.43;;;10.90;99.90;;;;;;7389309;19;20153;-78
2023/04/13 00:44:56;;;;;;;1.10;0.50;;;10.90;99.90;;;;;;7392172;19;20223;-78
2023/04/13 00:47:31;;;;;;;0.63;0.40;;;10.80;99.90;;;;;;7390577;19;20549;-78
2023/04/13 00:50:00;;;;;;;0.83;0.40;;;10.80;99.90;;;;;;7390824;19;20169;-78
2023/04/13 00:52:27;;;;;;;0.57;0.40;;;10.90;99.90;;;;;;7388477;19;20150;-78
2023/04/13 00:54:56;;;;;;;0.37;0.37;;;10.40;99.90;;;;;;7391698;19;20601;-77
2023/04/13 00:57:24;;;;;;;0.40;0.40;;;10.30;99.90;;;;;;7390680;19;20222;-75
2023/04/13 00:59:54;;;;;;;0.30;0.30;;;10.40;99.90;;;;;;7392927;19;20157;-77
2023/04/13 01:02:26;;;;;;;2.23;0.50;;;10.50;99.90;;;;;;7393294;19;20134;-76
2023/04/13 01:04:53;;;;;;;1.40;0.30;;;10.50;99.90;;;;;;7389366;19;20515;-76
2023/04/13 01:07:47;;;;;;;1.87;0.40;;;10.60;99.90;;;;;;7390826;19;20142;-77
2023/04/13 01:10:20;;;;;;;0.67;0.50;;;10.50;99.90;;;;;;7390154;19;20171;-77
2023/04/13 01:13:11;;;;;;;2.43;0.50;;;10.50;99.90;;;;;;7392720;19;20599;-77
2023/04/13 01:15:45;;;;;;;0.40;0.40;;;10.30;99.90;;;;;;7388876;19;20154;-77
2023/04/13 01:18:14;;;;;;;1.50;0.60;;;10.40;99.90;;;;;;7391645;19;20141;-77
2023/04/13 01:20:44;;;;;;;1.50;0.70;;;10.60;99.90;;;;;;7388198;19;20135;-76
2023/04/13 01:23:23;;;;;;;1.53;0.63;;;10.60;99.90;;;;;;7388849;19;20138;-77
2023/04/13 01:26:10;;;;;;;0.70;0.50;;;10.70;99.90;;;;;;7393233;19;20706;-77
2023/04/13 01:28:38;;;;;;;1.57;0.60;;;10.60;99.90;;;;;;7392082;19;20135;-77
2023/04/13 01:31:10;;;;;;;1.03;0.60;;;10.70;99.90;;;;;;7385998;19;20174;-79
2023/04/13 01:33:40;;;;;;;1.70;0.60;;;10.70;99.90;;;;;;7389809;19;20143;-77
2023/04/13 01:36:08;;;;;;;0.63;0.40;;;10.60;99.90;;;;;;7386950;19;20214;-77
2023/04/13 01:38:34;;;;;;;0.83;0.57;;;10.70;99.90;;;;;;7382809;19;20149;-77
2023/04/13 01:41:00;;;;;;;0.80;0.60;;;10.60;99.90;;;;;;7388039;19;20150;-76
2023/04/13 01:43:26;;;;;;;1.10;0.40;;;10.60;99.90;;;;;;7390022;19;20218;-76
2023/04/13 01:46:14;;;;;;;3.20;0.60;;;10.60;99.90;;;;;;7387232;19;20157;-77
2023/04/13 01:48:47;;;;;;;1.73;0.57;;;10.60;99.90;;;;;;7387546;19;20138;-76
2023/04/13 01:51:30;;;;;;;0.43;0.40;;;10.50;99.90;;;;;;7389635;19;20157;-77
2023/04/13 01:54:11;;;;;;;0.70;0.40;;;10.50;99.90;;;;;;7388220;19;20123;-77
2023/04/13 01:56:39;;;;;;;0.50;0.50;;;10.50;99.90;;;;;;7388799;19;20465;-76
2023/04/13 01:59:05;;;;;;;0.90;0.53;;;10.40;99.90;;;;;;7390259;19;20341;-79
2023/04/13 02:01:31;;;;;;;1.27;0.50;;;10.40;99.90;;;;;;7387829;19;20130;-76
2023/04/13 02:03:56;;;;;;;3.90;0.50;;;10.30;99.90;;;;;;7386088;19;20138;-77
2023/04/13 02:06:23;;;;;;;3.67;0.60;;;10.30;99.90;;;;;;7387336;19;20142;-78
2023/04/13 02:08:49;;;;;;;0.60;0.50;;;10.30;99.90;;;;;;7388417;19;20170;-76
2023/04/13 02:11:15;;;;;;;1.90;0.40;;;10.20;99.90;;;;;;7387680;19;20620;-77
2023/04/13 02:13:41;;;;;;;1.50;0.60;;;10.20;99.90;;;;;;7389549;19;20142;-78
2023/04/13 02:16:10;;;;;;;0.70;0.70;;;10.20;99.90;;;;;;7388271;19;20154;-78
2023/04/13 02:18:36;;;;;;;1.13;0.50;;;10.20;99.90;;;;;;7388176;19;20138;-76
2023/04/13 02:21:08;;;;;;;1.30;0.80;;;10.20;99.90;;;;;;7386602;19;20161;-77
2023/04/13 02:23:35;;;;;;;1.63;0.60;;;10.20;99.90;;;;;;7383868;19;20178;-77
2023/04/13 02:26:01;;;;;;;1.97;0.80;;;10.20;99.90;;;;;;7390224;19;20210;-77
2023/04/13 02:28:29;;;;;;;0.93;0.50;;;10.20;99.90;;;;;;7387314;19;20162;-76
2023/04/13 02:30:55;;;;;;;0.53;0.50;;;10.30;99.90;;;;;;7387156;19;20134;-77
2023/04/13 02:33:21;;;;;;;2.50;0.70;;;10.00;99.90;;;;;;7388228;19;21552;-77
2023/04/13 02:35:48;;;;;;;0.37;0.37;;;10.00;99.90;;;;;;7386476;19;20150;-77
2023/04/13 02:38:15;;;;;;;1.17;0.60;;;10.10;99.90;;;;;;7387867;19;20481;-77
2023/04/13 02:40:42;;;;;;;0.60;0.50;;;10.20;99.90;;;;;;7383740;19;20529;-76
2023/04/13 02:43:11;;;;;;;2.00;0.50;;;10.10;99.90;;;;;;7386934;19;20599;-76
2023/04/13 02:45:40;;;;;;;1.47;0.40;;;10.10;99.90;;;;;;7388889;19;20135;-76
2023/04/13 02:48:08;;;;;;;1.60;0.50;;;10.30;99.90;;;;;;7386297;19;20222;-77
2023/04/13 02:50:34;;;;;;;0.40;0.40;;;10.30;99.90;;;;;;7387498;19;20840;-77
2023/04/13 02:53:00;;;;;;;1.40;0.63;;;10.40;99.90;;;;;;7384201;19;20151;-76
2023/04/13 02:55:26;;;;;;;0.60;0.50;;;10.40;99.90;;;;;;7389867;19;20139;-76
2023/04/13 02:57:53;;;;;;;0.37;0.33;;;10.20;99.90;;;;;;7386600;19;20449;-76
2023/04/13 03:00:19;;;;;;;2.93;0.50;;;9.90;99.90;;;;;;7388081;19;20134;-76
2023/04/13 03:02:46;;;;;;;0.50;0.50;;;9.80;99.90;;;;;;7387247;19;20150;-76
2023/04/13 03:05:12;;;;;;;1.73;0.50;;;10.00;99.90;;;;;;7387802;19;20145;-77
2023/04/13 03:07:38;;;;;;;1.63;0.60;;;10.10;99.90;;;;;;7388852;19;20246;-77
2023/04/13 03:10:07;;;;;;;1.10;0.70;;;10.00;99.90;;;;;;7386900;19;20235;-76
2023/04/13 03:12:33;;;;;;;2.30;0.50;;;10.10;99.90;;;;;;7385199;19;20153;-77
2023/04/13 03:15:02;;;;;;;1.20;0.60;;;10.00;99.90;;;;;;7385924;19;20174;-76
2023/04/13 03:17:31;;;;;;;1.63;0.60;;;10.10;99.90;;;;;;7385948;19;20134;-77
2023/04/13 03:19:57;;;;;;;3.13;0.90;;;10.10;99.90;;;;;;7386623;19;20141;-77
2023/04/13 03:22:24;;;;;;;4.57;0.90;;;10.10;99.90;;;;;;7388952;19;20135;-76
2023/04/13 03:24:51;;;;;;;2.60;0.70;;;10.10;99.90;;;;;;7390566;19;20232;-75
2023/04/13 03:27:17;;;;;;;1.27;0.60;;;10.10;99.90;;;;;;7386862;19;20157;-76
2023/04/13 03:29:43;;;;;;;0.80;0.67;;;10.00;99.90;;;;;;7387616;19;20150;-76
2023/04/13 03:32:08;;;;;;;1.73;0.80;;;10.00;99.90;;;;;;7383478;19;20144;-76
2023/04/13 03:34:34;;;;;;;2.53;0.70;;;10.10;99.90;;;;;;7386228;19;20500;-76
2023/04/13 03:37:00;;;;;;;0.63;0.50;;;10.10;99.90;;;;;;7386352;19;20150;-77
2023/04/13 03:39:28;;;;;;;0.63;0.40;;;10.10;99.90;;;;;;7385693;19;20147;-75
2023/04/13 03:41:54;;;;;;;1.77;0.60;;;10.10;99.90;;;;;;7386017;19;20472;-76
2023/04/13 03:44:20;;;;;;;2.10;0.70;;;10.10;99.90;;;;;;7385390;19;20131;-77
2023/04/13 03:46:46;;;;;;;1.70;0.90;;;10.10;99.90;;;;;;7384903;19;20174;-76
2023/04/13 03:49:12;;;;;;;2.07;0.50;;;10.20;99.90;;;;;;7385271;19;20143;-76
2023/04/13 03:51:38;;;;;;;0.70;0.70;;;10.10;99.90;;;;;;7382996;19;20171;-77
2023/04/13 03:54:04;;;;;;;0.63;0.50;;;10.00;99.90;;;;;;7385352;19;20159;-75
2023/04/13 03:56:30;;;;;;;1.33;0.80;;;9.90;99.90;;;;;;7383534;19;20206;-75
2023/04/13 03:58:57;;;;;;;1.57;0.93;;;10.00;99.90;;;;;;7385010;19;20131;-76
2023/04/13 04:01:22;;;;;;;1.17;0.70;;;9.90;99.90;;;;;;7386193;19;20163;-76
2023/04/13 04:03:48;;;;;;;0.60;0.57;;;9.90;99.90;;;;;;7386334;19;20139;-76
2023/04/13 04:06:14;;;;;;;4.43;0.90;;;10.00;99.90;;;;;;7384385;19;20174;-76
2023/04/13 04:08:42;;;;;;;1.60;0.60;;;10.00;99.90;;;;;;7386810;19;20143;-76
2023/04/13 04:11:07;;;;;;;0.77;0.60;;;10.00;99.90;;;;;;7390810;19;20210;-76
2023/04/13 04:13:33;;;;;;;2.37;0.70;;;10.10;99.90;;;;;;7390866;19;20131;-76
2023/04/13 04:15:59;;;;;;;1.60;0.50;;;10.10;99.90;;;;;;7392097;19;20138;-76
2023/04/13 04:18:25;;;;;;;1.10;0.50;;;10.10;99.90;;;;;;7391084;19;20135;-77
2023/04/13 04:20:51;;;;;;;1.10;0.70;;;10.10;99.90;;;;;;7392813;19;20142;-75
2023/04/13 04:23:17;;;;;;;0.90;0.63;;;10.10;99.90;;;;;;7390226;19;20150;-76
2023/04/13 04:25:44;;;;;;;1.13;0.77;;;10.10;99.90;;;;;;7392359;19;20578;-76
2023/04/13 04:28:16;;;;;;;1.07;0.80;;;10.10;99.90;;;;;;7392172;19;20360;-76
2023/04/13 04:30:44;;;;;;;2.90;0.67;;;10.10;99.90;;;;;;7392729;19;20146;-76
2023/04/13 04:33:11;;;;;;;1.40;0.60;;;10.10;99.90;;;;;;7391812;19;20166;-76
2023/04/13 04:35:42;;;;;;;0.93;0.50;;;10.00;99.90;;;;;;7392628;19;20163;-75
2023/04/13 04:38:08;;;;;;;2.27;0.50;;;10.00;99.90;;;;;;7391494;19;20131;-76
2023/04/13 04:40:36;;;;;;;1.67;1.00;;;9.60;99.90;;;;;;7393710;19;20262;-75
2023/04/13 04:43:03;;;;;;;3.57;1.03;;;9.80;99.90;;;;;;7391743;19;20154;-76
2023/04/13 04:45:29;;;;;;;2.50;0.77;;;9.70;99.90;;;;;;7389855;19;20147;-76
2023/04/13 04:47:56;;;;;;;0.80;0.70;;;9.90;99.90;;;;;;7391754;19;20155;-75
2023/04/13 04:50:22;;;;;;;0.80;0.60;;;10.10;99.90;;;;;;7391030;19;20177;-77
2023/04/13 04:52:48;;;;;;;0.70;0.60;;;9.90;99.90;;;;;;7390282;19;20146;-76
2023/04/13 04:55:14;;;;;;;0.60;0.60;;;9.90;99.90;;;;;;7393167;19;20134;-75
2023/04/13 04:57:40;;;;;;;0.60;0.60;;;10.00;99.90;;;;;;7392063;19;20773;-76
2023/04/13 05:00:13;;;;;;;1.80;0.70;;;10.10;99.90;;;;;;7392722;19;20139;-76
2023/04/13 05:02:41;;;;;;;1.80;0.40;;;10.00;99.90;;;;;;7389990;19;20134;-76
2023/04/13 05:05:07;;;;;;;4.80;0.83;;;10.00;99.90;;;;;;7390749;19;20523;-76
2023/04/13 05:07:33;;;;;;;3.73;0.70;;;9.90;99.90;;;;;;7389457;19;20138;-77
2023/04/13 05:09:59;;;;;;;2.73;0.73;;;10.00;99.90;;;;;;7391610;19;20151;-77
2023/04/13 05:12:25;;;;;;;1.43;0.70;;;10.10;99.90;;;;;;7390769;19;20131;-76
2023/04/13 05:14:51;;;;;;;1.53;0.80;;;10.20;99.90;;;;;;7391802;19;20169;-76
2023/04/13 05:17:17;;;;;;;2.87;0.60;;;10.20;99.90;;;;;;7391389;19;20208;-76
2023/04/13 05:19:44;;;;;;;1.20;0.70;;;10.00;99.90;;;;;;7389395;19;20154;-75
2023/04/13 05:22:10;;;;;;;3.30;0.90;;;10.10;99.90;;;;;;7389649;19;20635;-75
2023/04/13 05:24:36;;;;;;;3.17;1.10;;;10.10;99.90;;;;;;7391679;19;20166;-76
2023/04/13 05:27:02;;;;;;;4.00;1.00;;;10.10;99.90;;;;;;7387622;19;20587;-76
2023/04/13 05:29:28;;;;;;;1.83;0.93;;;9.90;99.90;;;;;;7392147;19;20143;-75
2023/04/13 05:32:00;;;;;;;1.73;1.00;;;10.00;99.90;;;;;;7385744;19;20143;-76
2023/04/13 05:34:26;;;;;;;1.07;0.63;;;10.10;99.90;;;;;;7389565;19;20139;-76
2023/04/13 05:36:52;;;;;;;3.27;0.63;;;10.20;99.90;;;;;;7389626;19;20170;-74
2023/04/13 05:39:19;;;;;;;2.60;1.07;;;10.20;99.90;;;;;;7387412;19;20223;-76
2023/04/13 05:41:45;;;;;;;3.03;0.83;;;10.20;99.90;;;;;;7385933;19;20234;-76
2023/04/13 05:44:11;;;;;;;2.23;1.27;;;10.20;99.90;;;;;;7388903;19;20155;-76
2023/04/13 05:46:36;;;;;;;1.40;0.73;;;10.30;99.90;;;;;;7389231;19;20659;-76
2023/04/13 05:49:02;;;;;;;4.93;1.10;;;10.40;99.90;;;;;;7388367;19;20138;-75
2023/04/13 05:51:32;;;;;;;5.57;1.10;;;10.40;99.90;;;;;;7388001;19;20135;-75
2023/04/13 05:53:59;;;;;;;2.13;1.00;;;10.30;99.90;;;;;;7389550;19;20155;-77
2023/04/13 05:56:25;;;;;;;1.93;0.90;;;10.10;99.90;;;;;;7386649;19;20155;-76
2023/04/13 05:58:52;;;;;;;3.40;0.70;;;9.90;99.90;;;;;;7390508;19;20591;-78
2023/04/13 06:01:19;;;;;;;3.87;1.00;;;9.70;99.90;;;;;;7388876;19;20135;-76
2023/04/13 06:03:45;;;;;;;3.60;0.80;;;9.50;99.90;;;;;;7390999;19;20135;-76
2023/04/13 06:06:11;;;;;;;7.07;1.30;;;9.40;99.90;;;;;;7391109;19;20462;-76
2023/04/13 06:08:38;;;;;;;0.87;0.50;;;9.70;99.90;;;;;;7389234;19;20150;-75
2023/04/13 06:11:05;;;;;;;2.83;0.80;;;9.70;99.90;;;;;;7386858;19;20150;-79
2023/04/13 06:13:31;;;;;;;3.03;1.20;;;9.60;99.90;;;;;;7388293;19;20146;-77
2023/04/13 06:15:57;;;;;;;3.37;1.37;;;9.80;99.90;;;;;;7388440;19;20150;-77
2023/04/13 06:18:26;;;;;;;2.87;0.90;;;10.20;99.90;;;;;;7389836;19;20157;-74
2023/04/13 06:20:52;;;;;;;5.40;1.07;;;10.40;99.90;;;;;;7388737;19;20698;-75
2023/04/13 06:23:18;;;;;;;2.67;1.23;;;10.30;99.90;;;;;;7389511;19;20138;-75
2023/04/13 06:25:44;;;;;;;1.80;0.67;;;10.40;99.90;;;;;;7387696;19;20273;-75
2023/04/13 06:28:11;;;;;;;4.27;0.80;;;10.10;99.90;;;;;;7389765;19;20141;-76
2023/04/13 06:30:37;;;;;;;5.33;1.00;;;10.40;99.90;;;;;;7386968;19;20254;-76
2023/04/13 06:33:03;;;;;;;2.53;0.80;;;10.30;99.90;;;;;;7387295;19;20138;-77
2023/04/13 06:35:30;;;;;;;2.13;0.77;;;10.30;99.90;;;;;;7388889;19;20221;-75
2023/04/13 06:38:00;;;;;;;2.43;0.90;;;10.20;99.90;;;;;;7389197;19;20643;-75
2023/04/13 06:40:26;;;;;;;3.73;0.70;;;10.50;99.90;;;;;;7388026;19;20154;-77
2023/04/13 06:42:53;;;;;;;2.20;0.73;;;10.50;99.90;;;;;;7387283;19;20138;-76
2023/04/13 06:45:20;;;;;;;5.60;1.07;;;10.60;99.90;;;;;;7386087;19;20226;-77
2023/04/13 06:47:46;;;;;;;4.10;1.00;;;10.50;99.90;;;;;;7386082;19;20611;-75
2023/04/13 06:50:14;;;;;;;3.83;1.20;;;10.50;99.90;;;;;;7387285;19;20279;-76
2023/04/13 06:52:45;;;;;;;3.50;1.30;;;10.50;99.90;;;;;;7385560;19;20592;-78
2023/04/13 06:55:12;;;;;;;6.57;1.00;;;10.90;99.90;;;;;;7385833;19;20191;-76
2023/04/13 06:57:38;;;;;;;2.37;0.80;;;10.90;99.90;;;;;;7384323;19;20559;-76
2023/04/13 07:00:09;;;;;;;2.63;0.80;;;10.90;99.90;;;;;;7386548;19;20157;-78
2023/04/13 07:02:36;;;;;;;2.83;0.90;;;11.00;99.90;;;;;;7386487;19;20142;-75
2023/04/13 07:05:02;;;;;;;2.33;0.70;;;11.00;99.90;;;;;;7388390;19;20150;-76
2023/04/13 07:07:27;;;;;;;1.50;0.60;;;10.80;99.90;;;;;;7386024;19;20146;-77
2023/04/13 07:09:53;;;;;;;1.57;0.83;;;10.80;99.90;;;;;;7378402;19;20772;-77
2023/04/13 07:12:19;;;;;;;1.73;0.93;;;10.80;99.90;;;;;;7370691;19;20158;-76
2023/04/13 07:14:45;;;;;;;4.87;1.13;;;10.70;99.90;;;;;;7376622;19;20126;-77
2023/04/13 07:17:12;;;;;;;2.33;0.73;;;10.90;99.90;;;;;;7385432;19;20186;-76
2023/04/13 07:19:38;;;;;;;4.73;1.00;;;10.70;99.90;;;;;;7381332;19;21176;-77
2023/04/13 07:22:04;;;;;;;4.63;1.10;;;10.70;99.90;;;;;;7386867;19;20651;-76
2023/04/13 07:24:32;;;;;;;3.33;1.20;;;10.80;99.90;;;;;;7386861;19;20143;-78
2023/04/13 07:26:58;;;;;;;5.30;1.70;;;10.90;99.90;;;;;;7386819;19;20150;-78
2023/04/13 07:29:25;;;;;;;3.07;0.90;;;10.90;99.90;;;;;;7386506;19;20154;-79
2023/04/13 07:31:50;;;;;;;3.13;0.73;;;10.70;99.90;;;;;;7386384;19;20226;-79
2023/04/13 07:34:17;;;;;;;2.17;1.00;;;10.50;99.90;;;;;;7385891;19;20135;-80
2023/04/13 07:36:44;;;;;;;3.73;1.23;;;10.70;99.90;;;;;;7384766;19;20167;-78
2023/04/13 07:39:10;;;;;;;4.47;1.30;;;10.50;99.90;;;;;;7387992;19;20214;-79
2023/04/13 07:41:36;;;;;;;4.47;1.30;;;10.60;99.90;;;;;;7384318;19;20535;-80
2023/04/13 07:44:05;;;;;;;3.93;1.30;;;10.80;99.90;;;;;;7394964;19;20234;-78
2023/04/13 07:46:35;;;;;;;1.93;1.00;;;11.00;99.90;;;;;;7391161;19;20147;-78
2023/04/13 07:49:00;;;;;;;5.97;1.00;;;11.00;99.90;;;;;;7393877;19;20178;-78
2023/04/13 07:51:26;;;;;;;4.23;0.67;;;11.30;99.90;;;;;;7391836;19;20143;-75
2023/04/13 07:53:53;;;;;;;1.73;0.80;;;11.10;99.90;;;;;;7392639;19;20150;-77
2023/04/13 07:56:20;;;;;;;3.83;1.63;;;11.30;99.90;;;;;;7394298;19;20480;-78
2023/04/13 07:58:46;;;;;;;3.13;0.90;;;11.20;99.90;;;;;;7397741;19;20135;-77
2023/04/13 08:01:11;;;;;;;2.77;1.10;;;10.90;99.90;;;;;;7393696;19;20175;-79
2023/04/13 08:03:37;;;;;;;2.43;1.00;;;11.00;99.90;;;;;;7393487;19;20149;-79
2023/04/13 08:06:07;;;;;;;5.67;1.00;;;11.20;99.90;;;;;;7393747;19;20485;-77
2023/04/13 08:08:33;;;;;;;3.33;0.90;;;10.70;99.90;;;;;;7394204;19;20139;-76
2023/04/13 08:11:00;;;;;;;5.00;1.50;;;10.60;99.90;;;;;;7393643;19;20828;-77
2023/04/13 08:13:30;;;;;;;5.97;2.60;;;10.90;99.90;;;;;;7394411;19;20503;-76
2023/04/13 08:15:56;;;;;;;4.87;1.30;;;10.80;99.90;;;;;;7391065;19;20134;-78
2023/04/13 08:18:23;;;;;;;4.07;1.80;;;11.00;99.90;;;;;;7391909;19;20156;-75
2023/04/13 08:20:49;;;;;;;6.53;3.43;;;11.10;99.90;;;;;;7391315;19;20134;-77
2023/04/13 08:23:15;;;;;;;2.23;1.20;;;11.10;99.90;;;;;;7391281;19;21736;-77
2023/04/13 08:25:41;;;;;;;4.10;1.63;;;11.50;99.90;;;;;;7393744;19;20154;-77
2023/04/13 08:28:08;;;;;;;3.20;0.90;;;11.70;99.90;;;;;;7391450;19;20138;-77
2023/04/13 08:30:34;;;;;;;4.60;1.13;;;11.90;99.90;;;;;;7385722;19;20130;-79
2023/04/13 08:33:00;;;;;;;4.57;1.10;;;11.80;99.90;;;;;;7393068;19;20145;-79
2023/04/13 08:35:26;;;;;;;3.17;1.20;;;11.70;99.90;;;;;;7393538;19;20134;-76
2023/04/13 08:37:54;;;;;;;3.83;0.73;;;11.70;99.90;;;;;;7392093;19;20235;-78
2023/04/13 08:40:21;;;;;;;8.73;2.70;;;11.60;99.90;;;;;;7392397;19;20164;-78
2023/04/13 08:42:47;;;;;;;4.03;1.70;;;11.60;99.90;;;;;;7389979;19;20145;-78
2023/04/13 08:45:14;;;;;;;2.80;1.00;;;11.80;99.90;;;;;;7386181;19;20275;-79
2023/04/13 08:47:40;;;;;;;5.20;1.03;;;11.80;99.90;;;;;;7392969;19;20150;-77
2023/04/13 08:50:07;;;;;;;4.50;1.20;;;11.90;99.90;;;;;;7390374;19;20405;-77
2023/04/13 08:52:34;;;;;;;5.73;1.27;;;11.90;99.90;;;;;;7389023;19;20142;-78
2023/04/13 08:55:03;;;;;;;2.93;1.20;;;11.80;99.90;;;;;;7389578;19;22276;-76
2023/04/13 08:57:29;;;;;;;4.77;1.10;;;11.70;99.90;;;;;;7392963;19;20678;-78
2023/04/13 08:59:57;;;;;;;15.77;9.73;;;11.50;99.90;;;;;;7392727;19;20542;-78
2023/04/13 09:02:27;;;;;;;4.90;2.37;;;11.20;99.90;;;;;;7390534;19;20158;-76
2023/04/13 09:04:58;;;;;;;4.10;1.20;;;11.30;99.90;;;;;;7390755;19;20137;-79
2023/04/13 09:07:28;;;;;;;5.70;1.40;;;11.30;99.90;;;;;;7389235;19;20184;-79
2023/04/13 09:09:59;;;;;;;2.90;0.83;;;11.50;99.90;;;;;;7389076;19;20150;-79
2023/04/13 09:12:30;;;;;;;6.70;1.50;;;11.30;99.90;;;;;;7387181;19;20182;-76
2023/04/13 09:14:56;;;;;;;5.30;1.07;;;11.20;99.90;;;;;;7392144;19;20127;-78
2023/04/13 09:17:27;;;;;;;4.10;1.30;;;11.50;99.90;;;;;;7390628;19;20139;-78
2023/04/13 09:19:56;;;;;;;3.57;1.17;;;11.50;99.90;;;;;;7387059;19;20139;-76
2023/04/13 09:22:23;;;;;;;5.03;1.10;;;12.00;99.90;;;;;;7388729;19;20181;-75
2023/04/13 09:24:49;;;;;;;2.37;1.10;;;11.80;99.90;;;;;;7379548;19;20135;-76
2023/04/13 09:27:19;;;;;;;3.17;0.87;;;12.10;99.90;;;;;;7389994;19;20222;-75
2023/04/13 09:29:50;;;;;;;4.70;1.13;;;12.40;99.90;;;;;;7387081;19;20158;-76
2023/04/13 09:32:24;;;;;;;2.83;0.83;;;12.40;99.90;;;;;;7388925;19;20139;-75
2023/04/13 09:35:03;;;;;;;3.20;0.88;;;12.70;99.90;;;;;;7390852;19;20134;-73
2023/04/13 09:37:33;;;;;;;2.58;0.70;;;12.40;99.90;;;;;;7390052;19;20550;-73
2023/04/13 09:40:13;;;;;;;4.97;1.33;;;12.40;99.90;;;;;;7391066;19;20135;-73
2023/04/13 09:42:41;;;;;;;3.53;1.77;;;12.60;99.90;;;;;;7387212;19;20139;-74
2023/04/13 09:45:07;;;;;;;3.00;1.30;;;12.50;99.90;;;;;;7388793;19;20222;-74
2023/04/13 09:47:39;;;;;;;2.93;1.13;;;12.50;99.90;;;;;;7382653;19;20496;-74
2023/04/13 09:50:20;;;;;;;4.03;1.27;;;12.40;99.90;;;;;;7387580;19;20135;-75
2023/04/13 09:52:46;;;;;;;4.00;1.17;;;12.30;99.90;;;;;;7387126;19;20154;-74
2023/04/13 09:55:16;;;;;;;4.20;1.10;;;12.30;99.90;;;;;;7391580;19;20135;-74
2023/04/13 09:57:42;;;;;;;3.73;1.13;;;12.20;99.90;;;;;;7388582;19;20148;-75
2023/04/13 10:00:15;;;;;;;2.10;0.90;;;12.20;99.90;;;;;;7387464;19;20134;-74
2023/04/13 10:02:41;;;;;;;2.87;0.93;;;12.00;99.90;;;;;;7388576;19;20139;-75
2023/04/13 10:05:12;;;;;;;2.67;1.43;;;12.00;99.90;;;;;;7389392;19;20155;-74
2023/04/13 10:07:40;;;;;;;3.67;1.27;;;12.20;99.90;;;;;;7386059;19;20139;-74
2023/04/13 10:10:07;;;;;;;2.63;1.30;;;12.10;99.90;;;;;;7389594;19;20131;-74
2023/04/13 10:12:35;;;;;;;2.47;1.37;;;12.20;99.90;;;;;;7384699;19;20138;-74
2023/04/13 10:15:27;;;;;;;2.70;1.10;;;12.00;99.90;;;;;;7386405;19;20570;-75
2023/04/13 10:18:31;;;;;;;2.40;0.90;;;11.80;99.90;;;;;;7388934;19;20734;-74
2023/04/13 10:20:58;;;;;;;3.90;1.20;;;12.10;99.90;;;;;;7388167;19;20150;-73
2023/04/13 10:23:24;;;;;;;2.93;0.80;;;12.00;99.90;;;;;;7385812;19;20147;-74
2023/04/13 10:25:56;;;;;;;2.10;1.30;;;12.20;99.90;;;;;;7387364;19;20146;-75
2023/04/13 10:28:23;;;;;;;2.80;1.00;;;12.20;99.90;;;;;;7387254;19;20141;-74
2023/04/13 10:30:55;;;;;;;2.90;1.00;;;11.90;99.90;;;;;;7387299;19;20138;-74
2023/04/13 10:33:21;;;;;;;3.57;1.17;;;12.00;99.90;;;;;;7382316;19;20158;-74
2023/04/13 10:35:58;;;;;;;3.70;1.27;;;12.30;99.90;;;;;;7386567;19;20134;-75
2023/04/13 10:38:25;;;;;;;4.93;1.10;;;12.30;99.90;;;;;;7386830;19;20573;-74
2023/04/13 10:40:58;;;;;;;1.92;0.90;;;12.50;99.90;;;;;;7386391;19;20143;-75
2023/04/13 10:43:31;;;;;;;6.10;1.90;;;12.40;99.90;;;;;;7385340;19;20166;-76
2023/04/13 10:46:08;;;;;;;4.43;1.00;;;12.50;99.90;;;;;;7386947;19;20123;-75
2023/04/13 10:48:34;;;;;;;2.30;1.17;;;12.30;99.90;;;;;;7386120;19;20134;-75
2023/04/13 10:51:00;;;;;;;5.03;1.20;;;12.20;99.90;;;;;;7385745;19;20130;-74
2023/04/13 10:53:29;;;;;;;3.73;1.47;;;12.40;99.90;;;;;;7387349;19;20134;-74
2023/04/13 10:55:58;;;;;;;2.87;1.10;;;12.30;99.90;;;;;;7387068;19;20143;-75
2023/04/13 10:58:27;;;;;;;5.70;1.10;;;12.20;99.90;;;;;;7387448;19;20218;-74
2023/04/13 11:00:53;;;;;;;3.20;1.00;;;12.20;99.90;;;;;;7386139;19;20135;-74
2023/04/13 11:03:19;;;;;;;7.13;1.52;;;12.10;99.90;;;;;;7386486;19;20139;-74
2023/04/13 11:05:47;;;;;;;3.23;0.80;;;12.10;99.90;;;;;;7387637;19;20141;-74
2023/04/13 11:08:18;;;;;;;3.73;1.10;;;12.10;99.90;;;;;;7385925;19;20475;-74
2023/04/13 11:10:50;;;;;;;2.57;1.33;;;11.90;99.90;;;;;;7384420;19;20142;-74
2023/04/13 11:13:15;;;;;;;3.53;2.00;;;12.10;99.90;;;;;;7387002;19;20171;-75
2023/04/13 11:15:41;;;;;;;7.73;3.57;;;12.10;99.90;;;;;;7388132;19;20138;-75
2023/04/13 11:18:07;;;;;;;3.10;1.40;;;12.20;99.90;;;;;;7387187;19;20138;-75
2023/04/13 11:20:38;;;;;;;6.97;1.70;;;12.30;99.90;;;;;;7393587;19;20149;-74
2023/04/13 11:23:14;;;;;;;5.43;1.80;;;12.40;99.90;;;;;;7392337;19;20186;-74
2023/04/13 11:25:54;;;;;;;5.63;1.23;;;12.30;99.90;;;;;;7393937;19;20198;-74
2023/04/13 11:28:22;;;;;;;3.10;0.97;;;12.50;99.90;;;;;;7395132;19;20488;-72
2023/04/13 11:30:57;;;;;;;4.93;1.50;;;12.60;99.90;;;;;;7392982;19;20146;-75
2023/04/13 11:33:29;;;;;;;6.10;1.30;;;12.60;99.90;;;;;;7392873;19;20162;-74
2023/04/13 11:35:57;;;;;;;4.37;1.73;;;12.60;99.90;;;;;;7396065;19;20143;-73
2023/04/13 11:38:23;;;;;;;4.33;1.27;;;12.20;99.90;;;;;;7392594;19;20502;-73
2023/04/13 11:40:59;;;;;;;5.60;1.80;;;12.00;99.90;;;;;;7392792;19;20154;-72
2023/04/13 11:43:25;;;;;;;5.73;1.40;;;11.60;99.90;;;;;;7393309;19;20602;-72
2023/04/13 11:45:52;;;;;;;3.70;1.13;;;11.40;99.90;;;;;;7393766;19;20131;-72
2023/04/13 11:48:18;;;;;;;3.63;1.00;;;11.20;99.90;;;;;;7395106;19;20127;-73
2023/04/13 11:50:45;;;;;;;3.17;1.33;;;11.10;99.90;;;;;;7392038;19;20163;-74
2023/04/13 11:53:11;;;;;;;6.03;1.30;;;11.10;99.90;;;;;;7394287;19;20218;-72
2023/04/13 11:55:38;;;;;;;4.60;1.43;;;11.20;99.90;;;;;;7392377;19;20138;-75
2023/04/13 11:58:17;;;;;;;3.67;1.33;;;11.30;99.90;;;;;;7394844;19;20134;-76
2023/04/13 12:00:44;;;;;;;4.57;1.10;;;11.50;99.90;;;;;;7392114;19;20602;-73
2023/04/13 12:03:18;;;;;;;3.40;0.90;;;11.90;99.90;;;;;;7392389;19;20550;-75
2023/04/13 12:05:46;;;;;;;2.00;1.17;;;11.90;99.90;;;;;;7391006;19;20150;-73
2023/04/13 12:08:22;;;;;;;3.60;1.00;;;12.00;99.90;;;;;;7394749;19;20485;-73
2023/04/13 12:11:02;;;;;;;4.57;1.00;;;12.10;99.90;;;;;;7391537;19;20145;-74
2023/04/13 12:13:38;;;;;;;6.30;1.73;;;12.00;99.90;;;;;;7392295;19;20123;-74
2023/04/13 12:16:06;;;;;;;2.87;1.13;;;12.20;99.90;;;;;;7393626;19;20182;-74
2023/04/13 12:18:42;;;;;;;3.33;1.37;;;12.40;99.90;;;;;;7390264;19;20131;-73
2023/04/13 12:21:12;;;;;;;2.43;0.80;;;12.50;99.90;;;;;;7391747;19;20143;-73
2023/04/13 12:23:38;;;;;;;3.13;0.97;;;12.60;99.90;;;;;;7391632;19;20139;-73
2023/04/13 12:26:04;;;;;;;2.07;0.90;;;12.30;99.90;;;;;;7390741;19;20130;-74
2023/04/13 12:28:37;;;;;;;4.63;1.10;;;12.20;99.90;;;;;;7390287;19;20137;-74
2023/04/13 12:31:08;;;;;;;1.87;0.97;;;12.10;99.90;;;;;;7392262;19;20878;-73
2023/04/13 12:33:35;;;;;;;4.10;1.77;;;11.80;99.90;;;;;;7392099;19;20145;-73
2023/04/13 12:36:01;;;;;;;3.37;2.03;;;11.80;99.90;;;;;;7389179;19;20636;-72
2023/04/13 12:38:27;;;;;;;5.97;2.20;;;12.10;99.90;;;;;;7392432;19;20146;-73
2023/04/13 12:41:00;;;;;;;4.07;2.23;;;12.20;99.90;;;;;;7390459;19;20161;-72
2023/04/13 12:43:27;;;;;;;4.90;2.40;;;12.30;99.90;;;;;;7391856;19;20151;-73
2023/04/13 12:45:53;;;;;;;4.63;1.50;;;11.90;99.90;;;;;;7394098;19;20127;-72
2023/04/13 12:48:21;;;;;;;4.00;1.60;;;11.90;99.90;;;;;;7391616;19;20262;-73
2023/04/13 12:50:47;;;;;;;5.23;1.20;;;12.00;99.90;;;;;;7390541;19;20197;-74
2023/04/13 12:53:13;;;;;;;6.27;1.50;;;12.00;99.90;;;;;;7392843;19;20658;-73